Time;durP1;ratioP1;P1;durP2;ratioP2;P2;SDS_P1;SDS_P2;PMS_P1;PMS_P2;Temp;Humidity;BMP_temperature;BMP_pressure;BME280_temperature;BME280_humidity;BME280_pressure;Samples;Min_cycle;Max_cycle;Signal;HPM_P1;HPM_P2
2023/06/01 05:28:13;;;;;;;;;;;;;;;20.10;59.07;96974.28;4214903;27;10330;-70
2023/06/01 05:30:16;;;;;;;;;;;;;;;20.45;58.36;96977.41;4210679;28;5643;-70
2023/06/01 05:32:19;;;;;;;;;;;;;;;20.75;58.16;96973.44;4208868;28;5621;-70
2023/06/01 05:34:23;;;;;;;;;;;;;;;20.99;57.97;96977.44;4207109;28;5640;-70
2023/06/01 05:36:27;;;;;;;;;;;;;;;21.22;57.51;96979.00;4213914;28;5640;-70
2023/06/01 05:38:30;;;;;;;;;;;;;;;21.39;57.33;96974.31;4214618;28;5694;-70
2023/06/01 05:40:32;;;;;;;;;;;;;;;21.55;57.14;96974.44;4213773;28;5919;-70
2023/06/01 05:42:35;;;;;;;;;;;;;;;21.65;56.46;96972.63;4193112;28;5774;-71
2023/06/01 05:44:40;;;;;;;;;;;;;;;21.76;56.38;96978.88;4207051;28;5690;-70
2023/06/01 05:46:43;;;;;;;;;;;;;;;21.86;56.57;96973.56;4213720;28;5735;-70
2023/06/01 05:48:45;;;;;;;;;;;;;;;21.95;56.42;96976.56;4213473;28;5640;-72
2023/06/01 05:50:48;;;;;;;;;;;;;;;22.12;55.92;96965.66;4213721;28;5822;-72
2023/06/01 05:52:52;;;;;;;;;;;;;;;22.22;55.54;96977.28;4214216;28;5631;-72
2023/06/01 05:54:55;;;;;;;;;;;;;;;22.33;55.45;96972.75;4214989;28;5627;-72
2023/06/01 05:56:57;;;;;;;;;;;;;;;22.43;55.22;96970.09;4214440;28;5727;-72
2023/06/01 05:59:00;;;;;;;;;;;;;;;22.53;54.93;96967.41;4214285;28;5726;-72
2023/06/01 06:01:05;;;;;;;;;;;;;;;22.59;55.19;96971.75;4214649;28;6551;-72
2023/06/01 06:03:08;;;;;;;;;;;;;;;22.67;54.62;96978.50;4214096;28;5807;-72
2023/06/01 06:05:11;;;;;;;;;;;;;;;22.73;54.44;96969.34;4197965;28;5673;-72
2023/06/01 06:07:14;;;;;;;;;;;;;;;22.76;54.28;96970.69;4213922;28;5799;-72
2023/06/01 06:09:17;;;;;;;;;;;;;;;22.80;54.43;96971.78;4214983;28;5758;-72
2023/06/01 06:11:21;;;;;;;;;;;;;;;22.88;54.45;96972.13;4214611;28;5092;-72
2023/06/01 06:13:24;;;;;;;;;;;;;;;22.99;53.79;96975.63;4214740;28;5627;-72
2023/06/01 06:15:27;;;;;;;;;;;;;;;23.06;53.83;96978.06;4214075;28;5791;-72
2023/06/01 06:17:32;;;;;;;;;;;;;;;23.10;53.99;96976.44;4213704;28;5750;-73
2023/06/01 06:19:35;;;;;;;;;;;;;;;23.14;53.79;96981.03;4214095;28;5782;-72
2023/06/01 06:21:38;;;;;;;;;;;;;;;23.19;53.55;96978.34;4214210;28;5690;-73
2023/06/01 06:23:42;;;;;;;;;;;;;;;23.20;53.08;96971.84;4214328;28;5711;-73
2023/06/01 06:25:48;;;;;;;;;;;;;;;23.20;53.11;96968.34;4214009;28;5699;-73
2023/06/01 06:27:50;;;;;;;;;;;;;;;23.23;53.34;96978.63;4210010;28;5675;-73
2023/06/01 06:29:53;;;;;;;;;;;;;;;23.24;53.19;96978.34;4202917;28;5687;-72
2023/06/01 06:31:57;;;;;;;;;;;;;;;23.22;52.77;96975.13;4202954;28;5706;-73
2023/06/01 06:34:02;;;;;;;;;;;;;;;23.21;52.75;96978.06;4202492;28;5768;-73
2023/06/01 06:36:05;;;;;;;;;;;;;;;23.21;52.53;96984.25;4203083;28;5631;-72
2023/06/01 06:38:08;;;;;;;;;;;;;;;23.24;52.27;96977.53;4202482;28;5684;-73
2023/06/01 06:40:12;;;;;;;;;;;;;;;23.32;52.53;96979.69;4202715;28;5687;-73
2023/06/01 06:42:15;;;;;;;;;;;;;;;23.37;52.13;96977.00;4202583;28;5706;-72
2023/06/01 06:44:20;;;;;;;;;;;;;;;23.41;51.94;96982.66;4202924;28;5683;-72
2023/06/01 06:46:23;;;;;;;;;;;;;;;23.42;51.71;96979.69;4202709;28;5694;-73
2023/06/01 06:48:26;;;;;;;;;;;;;;;23.46;51.63;96979.97;4202478;28;5730;-73
2023/06/01 06:50:30;;;;;;;;;;;;;;;23.46;51.70;96979.97;4202316;28;5793;-74
2023/06/01 06:52:33;;;;;;;;;;;;;;;23.43;51.67;96977.78;4202054;28;5631;-72
2023/06/01 06:54:36;;;;;;;;;;;;;;;23.43;51.50;96984.00;4202522;28;5628;-72
2023/06/01 06:56:39;;;;;;;;;;;;;;;23.42;51.19;96985.06;4202450;28;5719;-72
2023/06/01 06:58:42;;;;;;;;;;;;;;;23.44;50.86;96982.09;4202326;28;5619;-73
2023/06/01 07:00:55;;;;;;;;;;;;;;;23.43;51.21;96980.50;4202270;28;5656;-72
2023/06/01 07:02:59;;;;;;;;;;;;;;;23.36;50.91;96979.97;4202226;28;5735;-73
2023/06/01 07:05:03;;;;;;;;;;;;;;;23.33;51.17;96970.53;4202398;28;5077;-73
2023/06/01 07:07:08;;;;;;;;;;;;;;;23.32;50.66;96974.28;4202364;28;5718;-73
2023/06/01 07:09:11;;;;;;;;;;;;;;;23.29;50.72;96974.03;4202356;28;5661;-73
2023/06/01 07:11:14;;;;;;;;;;;;;;;23.20;51.03;96963.75;4202457;28;5620;-73
2023/06/01 07:13:17;;;;;;;;;;;;;;;23.14;51.05;96961.34;4202309;28;5762;-73
2023/06/01 07:15:21;;;;;;;;;;;;;;;23.11;50.85;96960.00;4202144;28;5632;-73
2023/06/01 07:17:24;;;;;;;;;;;;;;;23.11;50.54;96957.31;4202193;28;5635;-73
2023/06/01 07:19:32;;;;;;;;;;;;;;;23.15;50.89;96958.38;4202019;28;5687;-73
2023/06/01 07:21:38;;;;;;;;;;;;;;;23.14;50.47;96962.16;4202118;28;5643;-73
2023/06/01 07:23:45;;;;;;;;;;;;;;;23.11;50.42;96962.72;4202173;28;5768;-73
2023/06/01 07:25:48;;;;;;;;;;;;;;;23.07;50.83;96964.31;4201750;28;5901;-73
2023/06/01 07:27:52;;;;;;;;;;;;;;;23.06;50.72;96962.69;4201492;28;6325;-73
2023/06/01 07:29:55;;;;;;;;;;;;;;;23.02;50.26;96966.19;4201805;28;6317;-72
2023/06/01 07:31:58;;;;;;;;;;;;;;;22.98;50.66;96962.41;4202145;28;5719;-72
2023/06/01 07:34:02;;;;;;;;;;;;;;;22.94;50.56;96962.94;4201777;28;5620;-72
2023/06/01 07:36:06;;;;;;;;;;;;;;;22.90;50.30;96963.75;4202034;28;5635;-72
2023/06/01 07:38:10;;;;;;;;;;;;;;;22.90;50.65;96961.06;4201564;28;5690;-73
2023/06/01 07:40:15;;;;;;;;;;;;;;;22.91;50.34;96965.38;4200696;28;5691;-73
2023/06/01 07:42:19;;;;;;;;;;;;;;;22.90;50.15;96961.88;4202011;28;5970;-73
2023/06/01 07:44:23;;;;;;;;;;;;;;;22.88;50.27;96965.91;4201757;28;5702;-73
2023/06/01 07:46:26;;;;;;;;;;;;;;;22.86;50.34;96968.03;4201687;28;5631;-73
2023/06/01 07:48:35;;;;;;;;;;;;;;;22.85;50.25;96963.72;4201414;28;5914;-73
2023/06/01 07:50:38;;;;;;;;;;;;;;;22.84;49.83;96962.94;4201845;28;5702;-73
2023/06/01 07:52:42;;;;;;;;;;;;;;;22.82;50.40;96966.94;4201508;28;5711;-73
2023/06/01 07:54:45;;;;;;;;;;;;;;;22.77;50.19;96962.38;4201556;28;6209;-73
2023/06/01 07:56:49;;;;;;;;;;;;;;;22.77;50.11;96956.16;4201701;28;5637;-73
2023/06/01 07:58:52;;;;;;;;;;;;;;;22.75;50.05;96955.59;4201873;28;7518;-73
2023/06/01 08:00:55;;;;;;;;;;;;;;;22.74;50.06;96967.47;4201490;28;5639;-73
2023/06/01 08:02:58;;;;;;;;;;;;;;;22.72;50.08;96965.03;4201256;28;5726;-72
2023/06/01 08:05:02;;;;;;;;;;;;;;;22.73;49.94;96963.16;4200958;28;5731;-72
2023/06/01 08:07:06;;;;;;;;;;;;;;;22.73;50.07;96965.84;4201201;28;5632;-72
2023/06/01 08:09:09;;;;;;;;;;;;;;;22.72;49.72;96967.72;4201477;28;5698;-72
2023/06/01 08:11:13;;;;;;;;;;;;;;;22.69;49.93;96959.38;4201669;28;5744;-72
2023/06/01 08:13:18;;;;;;;;;;;;;;;22.68;49.84;96961.25;4201422;28;5738;-72
2023/06/01 08:15:23;;;;;;;;;;;;;;;22.70;49.66;96961.00;4201455;28;7679;-72
2023/06/01 08:17:26;;;;;;;;;;;;;;;22.71;49.74;96966.09;4201435;28;5683;-72
2023/06/01 08:19:31;;;;;;;;;;;;;;;22.72;49.70;96961.53;4201249;28;5715;-72
2023/06/01 08:21:34;;;;;;;;;;;;;;;22.65;49.82;96961.78;4201600;28;5691;-72
2023/06/01 08:23:38;;;;;;;;;;;;;;;22.62;49.85;96960.41;4201191;28;5699;-72
2023/06/01 08:25:42;;;;;;;;;;;;;;;22.64;49.84;96965.53;4200983;28;6301;-72
2023/06/01 08:27:46;;;;;;;;;;;;;;;22.68;49.75;96961.25;4200593;28;6326;-72
2023/06/01 08:29:50;;;;;;;;;;;;;;;22.71;49.69;96962.59;4200804;28;7713;-73
2023/06/01 08:31:59;;;;;;;;;;;;;;;22.73;49.38;96955.06;4201093;28;5871;-73
2023/06/01 08:34:02;;;;;;;;;;;;;;;22.74;49.27;96962.06;4200672;28;5679;-73
2023/06/01 08:36:06;;;;;;;;;;;;;;;22.74;49.21;96957.47;4200944;28;5789;-73
2023/06/01 08:38:09;;;;;;;;;;;;;;;22.75;49.57;96958.28;4200862;28;5802;-73
2023/06/01 08:40:12;;;;;;;;;;;;;;;22.73;49.46;96961.25;4200741;28;7817;-73
2023/06/01 08:42:22;;;;;;;;;;;;;;;22.77;48.94;96950.78;4200402;28;5623;-73
2023/06/01 08:44:36;;;;;;;;;;;;;;;22.77;48.94;96956.97;4200617;28;5843;-73
2023/06/01 08:46:42;;;;;;;;;;;;;;;22.77;48.64;96956.97;4200712;28;5623;-73
2023/06/01 08:48:47;;;;;;;;;;;;;;;22.78;48.74;96953.19;4200445;28;5790;-73
2023/06/01 08:50:53;;;;;;;;;;;;;;;22.79;49.05;96959.41;4200337;28;6388;-73
2023/06/01 08:52:57;;;;;;;;;;;;;;;22.79;48.74;96952.13;4200614;28;5640;-73
2023/06/01 08:55:01;;;;;;;;;;;;;;;22.82;48.70;96951.56;4200626;28;5668;-73
2023/06/01 08:57:07;;;;;;;;;;;;;;;22.86;48.82;96944.59;4200645;28;5628;-73
2023/06/01 08:59:13;;;;;;;;;;;;;;;22.91;48.73;96951.91;4200919;28;5687;-73
2023/06/01 09:01:20;;;;;;;;;;;;;;;22.91;48.67;96941.13;4200701;28;5640;-73
2023/06/01 09:03:25;;;;;;;;;;;;;;;22.92;48.56;96940.84;4200468;28;5623;-72
2023/06/01 09:05:28;;;;;;;;;;;;;;;22.94;48.79;96949.47;4200412;28;5723;-73
2023/06/01 09:07:32;;;;;;;;;;;;;;;22.95;48.55;96931.41;4200565;28;5913;-72
2023/06/01 09:09:38;;;;;;;;;;;;;;;22.96;48.48;96933.03;4200609;28;6313;-72
2023/06/01 09:11:41;;;;;;;;;;;;;;;22.98;48.35;96930.84;4200460;28;5635;-73
2023/06/01 09:13:44;;;;;;;;;;;;;;;23.03;48.37;96936.28;4200370;28;5691;-73
2023/06/01 09:15:53;;;;;;;;;;;;;;;23.05;48.09;96931.41;4185305;28;5749;-73
2023/06/01 09:18:06;;;;;;;;;;;;;;;23.07;48.12;96929.25;4189507;28;5825;-73
2023/06/01 09:20:14;;;;;;;;;;;;;;;23.11;48.45;96929.53;4200491;28;5098;-73
2023/06/01 09:22:17;;;;;;;;;;;;;;;23.11;47.89;96924.16;4200640;28;5710;-73
2023/06/01 09:24:21;;;;;;;;;;;;;;;23.11;47.76;96929.53;4200305;28;5650;-73
2023/06/01 09:26:28;;;;;;;;;;;;;;;23.10;47.76;96925.19;4199156;28;5620;-73
2023/06/01 09:28:30;;;;;;;;;;;;;;;23.10;47.77;96926.00;4200385;28;5694;-73
2023/06/01 09:30:41;;;;;;;;;;;;;;;23.12;47.65;96921.19;4200499;28;5089;-73
2023/06/01 09:32:47;;;;;;;;;;;;;;;23.12;47.79;96913.09;4200537;28;5639;-74
2023/06/01 09:34:50;;;;;;;;;;;;;;;23.16;47.69;96919.56;4200304;28;6447;-73
2023/06/01 09:36:56;;;;;;;;;;;;;;;23.18;47.23;96916.56;4200542;28;5734;-72
2023/06/01 09:39:04;;;;;;;;;;;;;;;23.17;47.50;96912.25;4200381;28;5687;-72
2023/06/01 09:41:07;;;;;;;;;;;;;;;23.16;47.30;96916.84;4200393;28;5624;-73
2023/06/01 09:43:21;;;;;;;;;;;;;;;23.18;47.62;96913.88;4183953;28;5650;-72
2023/06/01 09:45:24;;;;;;;;;;;;;;;23.16;47.15;96916.84;4194231;28;5691;-72
2023/06/01 09:47:29;;;;;;;;;;;;;;;23.16;47.35;96911.47;4200170;28;5882;-72
2023/06/01 09:49:33;;;;;;;;;;;;;;;23.19;47.28;96913.59;4200034;28;5703;-72
2023/06/01 09:51:36;;;;;;;;;;;;;;;23.16;47.03;96906.06;4200377;28;5485;-72
2023/06/01 09:53:44;;;;;;;;;;;;;;;23.17;47.24;96899.59;4200069;28;7718;-72
2023/06/01 09:55:59;;;;;;;;;;;;;;;23.21;46.66;96908.75;4200355;28;5627;-72
2023/06/01 09:58:19;;;;;;;;;;;;;;;23.22;46.96;96902.28;4200366;28;5766;-72
2023/06/01 10:00:24;;;;;;;;;;;;;;;23.22;46.52;96899.59;4190614;28;7063;-73
2023/06/01 10:02:27;;;;;;;;;;;;;;;23.24;46.13;96892.03;4200102;28;6593;-73
2023/06/01 10:04:34;;;;;;;;;;;;;;;23.26;46.17;96893.66;4203143;28;5711;-73
2023/06/01 10:06:41;;;;;;;;;;;;;;;23.29;45.79;96890.41;4203207;28;5687;-73
2023/06/01 10:08:47;;;;;;;;;;;;;;;23.32;45.76;96887.97;4203566;28;6529;-73
2023/06/01 10:10:50;;;;;;;;;;;;;;;23.34;45.78;96880.44;4203300;28;5608;-73
2023/06/01 10:12:53;;;;;;;;;;;;;;;23.39;45.52;96882.31;4203329;28;5651;-73
2023/06/01 10:14:57;;;;;;;;;;;;;;;23.41;45.42;96880.94;4203207;28;5699;-73
2023/06/01 10:17:00;;;;;;;;;;;;;;;23.40;45.34;96879.31;4202871;28;5683;-73
2023/06/01 10:19:02;;;;;;;;;;;;;;;23.41;45.01;96885.53;4202915;28;5631;-73
2023/06/01 10:21:07;;;;;;;;;;;;;;;23.41;44.94;96880.94;4203230;28;6329;-73
2023/06/01 10:23:10;;;;;;;;;;;;;;;23.43;44.50;96886.06;4202941;28;5655;-72
2023/06/01 10:25:39;;;;;;;;;;;;;;;23.45;44.50;96873.94;4203107;28;5857;-73
2023/06/01 10:27:53;;;;;;;;;;;;;;;23.48;44.06;96867.19;4202772;28;5683;-73
2023/06/01 10:29:56;;;;;;;;;;;;;;;23.49;43.96;96866.09;4203152;28;5262;-73
2023/06/01 10:31:59;;;;;;;;;;;;;;;23.51;44.10;96872.03;4203221;28;5816;-74
2023/06/01 10:34:03;;;;;;;;;;;;;;;23.54;43.85;96866.06;4202826;28;6376;-73
2023/06/01 10:36:06;;;;;;;;;;;;;;;23.54;44.16;96864.19;4202962;28;5691;-73
2023/06/01 10:38:27;;;;;;;;;;;;;;;23.52;44.05;96865.53;4202882;28;5628;-73
2023/06/01 10:40:30;;;;;;;;;;;;;;;23.53;43.95;96877.94;4197449;28;5786;-73
2023/06/01 10:42:39;;;;;;;;;;;;;;;23.52;43.99;96870.94;4202686;28;5698;-73
2023/06/01 10:44:46;;;;;;;;;;;;;;;23.56;43.84;96865.78;4203320;28;5703;-73
2023/06/01 10:46:50;;;;;;;;;;;;;;;23.58;43.70;96869.88;4202651;28;5102;-73
2023/06/01 10:48:56;;;;;;;;;;;;;;;23.61;43.27;96861.25;4202255;28;5680;-72
2023/06/01 10:51:18;;;;;;;;;;;;;;;23.63;43.79;96858.25;4202586;28;5715;-72
2023/06/01 10:53:28;;;;;;;;;;;;;;;23.64;43.45;96859.88;4187629;28;5769;-72
2023/06/01 10:55:32;;;;;;;;;;;;;;;23.64;43.19;96852.59;4201719;28;5687;-73
2023/06/01 10:57:35;;;;;;;;;;;;;;;23.66;43.25;96849.59;4202437;28;5714;-73
2023/06/01 10:59:39;;;;;;;;;;;;;;;23.69;43.69;96851.78;4202496;28;5711;-72
2023/06/01 11:01:44;;;;;;;;;;;;;;;23.71;43.95;96841.50;4202619;28;5782;-73
2023/06/01 11:03:50;;;;;;;;;;;;;;;23.74;43.90;96847.16;4202254;28;5739;-73
2023/06/01 11:05:53;;;;;;;;;;;;;;;23.74;43.85;96844.47;4202349;28;5695;-73
2023/06/01 11:07:56;;;;;;;;;;;;;;;23.78;43.85;96850.09;4202344;28;5838;-73
2023/06/01 11:09:59;;;;;;;;;;;;;;;23.79;44.07;96846.34;4202257;28;6813;-72
2023/06/01 11:12:03;;;;;;;;;;;;;;;23.77;43.61;96841.19;4202511;28;5679;-72
2023/06/01 11:14:12;;;;;;;;;;;;;;;23.79;44.09;96844.44;4202087;28;5635;-74
2023/06/01 11:16:37;;;;;;;;;;;;;;;23.83;43.76;96833.09;4202382;28;5830;-72
2023/06/01 11:18:44;;;;;;;;;;;;;;;23.83;43.73;96825.00;4197783;28;5644;-72
2023/06/01 11:20:47;;;;;;;;;;;;;;;23.81;44.32;96828.78;4202301;28;6750;-73
2023/06/01 11:22:53;;;;;;;;;;;;;;;23.84;44.19;96834.72;4202162;28;5679;-73
2023/06/01 11:24:59;;;;;;;;;;;;;;;23.86;43.93;96833.34;4202263;28;5631;-72
2023/06/01 11:27:07;;;;;;;;;;;;;;;23.84;44.06;96835.50;4202023;28;5691;-73
2023/06/01 11:29:16;;;;;;;;;;;;;;;23.85;43.97;96822.81;4202223;28;5644;-73
2023/06/01 11:31:20;;;;;;;;;;;;;;;23.85;44.46;96823.63;4202192;28;5615;-72
2023/06/01 11:33:29;;;;;;;;;;;;;;;23.87;44.20;96826.03;4202071;28;5627;-72
2023/06/01 11:35:36;;;;;;;;;;;;;;;23.92;44.12;96821.44;4202188;28;5631;-73
2023/06/01 11:37:40;;;;;;;;;;;;;;;23.97;44.45;96823.31;4202011;28;5831;-73
2023/06/01 11:39:44;;;;;;;;;;;;;;;24.00;44.13;96823.53;4202135;28;5643;-73
2023/06/01 11:41:48;;;;;;;;;;;;;;;24.05;44.01;96830.81;4202040;28;5691;-73
2023/06/01 11:43:56;;;;;;;;;;;;;;;24.07;44.43;96823.25;4201981;28;5695;-73
2023/06/01 11:46:02;;;;;;;;;;;;;;;24.11;43.96;96821.59;4202057;28;5786;-74
2023/06/01 11:48:23;;;;;;;;;;;;;;;24.17;44.42;96809.69;4201805;28;5766;-74
2023/06/01 11:50:29;;;;;;;;;;;;;;;24.21;44.06;96813.44;4201617;28;6376;-73
2023/06/01 11:52:32;;;;;;;;;;;;;;;24.27;43.97;96812.34;4201770;28;5687;-74
2023/06/01 11:54:36;;;;;;;;;;;;;;;24.35;44.04;96810.94;4201631;28;5619;-73
2023/06/01 11:56:39;;;;;;;;;;;;;;;24.43;43.90;96810.34;4201636;28;6407;-73
2023/06/01 11:58:42;;;;;;;;;;;;;;;24.52;44.20;96807.88;4201746;28;5758;-74
2023/06/01 12:00:46;;;;;;;;;;;;;;;24.56;43.66;96793.50;4201775;28;5906;-74
2023/06/01 12:02:49;;;;;;;;;;;;;;;24.63;43.75;96801.28;4201463;28;6381;-73
2023/06/01 12:04:57;;;;;;;;;;;;;;;24.65;43.99;96799.91;4201733;28;5683;-74
2023/06/01 12:07:07;;;;;;;;;;;;;;;24.73;43.65;96798.50;4201671;28;5830;-75
2023/06/01 12:09:11;;;;;;;;;;;;;;;24.79;43.56;96796.56;4201638;28;5688;-74
2023/06/01 12:11:16;;;;;;;;;;;;;;;24.82;43.52;96796.81;4201454;28;5766;-74
2023/06/01 12:13:21;;;;;;;;;;;;;;;24.86;43.41;96800.56;4201271;28;5715;-72
2023/06/01 12:15:24;;;;;;;;;;;;;;;24.89;43.52;96791.06;4201693;28;5690;-73
2023/06/01 12:17:46;;;;;;;;;;;;;;;24.90;43.59;96790.78;4201218;28;6475;-73
2023/06/01 12:19:58;;;;;;;;;;;;;;;24.97;43.76;96793.97;4201336;28;5794;-73
2023/06/01 12:22:01;;;;;;;;;;;;;;;25.02;43.58;96786.91;4201344;28;5722;-73
2023/06/01 12:24:07;;;;;;;;;;;;;;;25.07;43.51;96779.56;4200741;28;5694;-73
2023/06/01 12:26:10;;;;;;;;;;;;;;;25.12;43.16;96779.50;4200878;28;5827;-74
2023/06/01 12:28:14;;;;;;;;;;;;;;;25.17;43.35;96775.94;4201142;28;5776;-74
2023/06/01 12:30:23;;;;;;;;;;;;;;;25.19;43.06;96790.00;4201150;28;5751;-74
2023/06/01 12:32:39;;;;;;;;;;;;;;;25.22;43.08;96786.72;4201260;28;5620;-74
2023/06/01 12:34:47;;;;;;;;;;;;;;;25.25;43.27;96772.59;4201070;28;6064;-74
2023/06/01 12:36:50;;;;;;;;;;;;;;;25.30;43.25;96764.44;4201328;28;5627;-74
2023/06/01 12:38:54;;;;;;;;;;;;;;;25.34;42.98;96765.47;4183341;28;5702;-74
2023/06/01 12:41:11;;;;;;;;;;;;;;;25.38;42.92;96763.81;4200791;28;5809;-73
2023/06/01 12:43:21;;;;;;;;;;;;;;;25.44;42.71;96762.66;4200932;28;5687;-74
2023/06/01 12:45:24;;;;;;;;;;;;;;;25.44;42.81;96754.53;4200776;28;5762;-74
2023/06/01 12:47:27;;;;;;;;;;;;;;;25.45;42.56;96769.66;4199318;28;5808;-74
2023/06/01 12:49:30;;;;;;;;;;;;;;;25.46;42.74;96765.06;4200594;28;5691;-74
2023/06/01 12:51:34;;;;;;;;;;;;;;;25.44;42.78;96770.75;4188005;28;5717;-74
2023/06/01 12:53:37;;;;;;;;;;;;;;;25.44;42.84;96772.66;4196560;28;5101;-74
2023/06/01 12:55:40;;;;;;;;;;;;;;;25.45;42.43;96777.78;4201133;28;5643;-74
2023/06/01 12:57:44;;;;;;;;;;;;;;;25.45;42.76;96768.88;4200726;28;5931;-74
2023/06/01 12:59:48;;;;;;;;;;;;;;;25.42;42.57;96761.31;4200759;28;5695;-74
2023/06/01 13:01:51;;;;;;;;;;;;;;;25.39;42.52;96753.78;4200715;28;5785;-74
2023/06/01 13:03:54;;;;;;;;;;;;;;;25.40;42.65;96744.56;4200466;28;5687;-73
2023/06/01 13:05:57;;;;;;;;;;;;;;;25.45;42.54;96745.31;4200392;28;5631;-73
2023/06/01 13:08:02;;;;;;;;;;;;;;;25.48;42.81;96743.91;4200477;28;5934;-73
2023/06/01 13:10:06;;;;;;;;;;;;;;;25.47;42.30;96737.69;4200752;28;5773;-73
2023/06/01 13:12:10;;;;;;;;;;;;;;;25.44;42.60;96727.47;4192238;28;5781;-73
2023/06/01 13:14:14;;;;;;;;;;;;;;;25.43;42.47;96733.16;4200618;28;5782;-73
2023/06/01 13:16:17;;;;;;;;;;;;;;;25.43;42.78;96728.56;4200216;28;5751;-73
2023/06/01 13:18:21;;;;;;;;;;;;;;;25.43;42.69;96731.25;4200338;28;5808;-73
2023/06/01 13:20:27;;;;;;;;;;;;;;;25.44;42.90;96719.34;4200603;28;5810;-73
2023/06/01 13:22:30;;;;;;;;;;;;;;;25.42;42.59;96724.25;4200336;28;5635;-73
2023/06/01 13:24:33;;;;;;;;;;;;;;;25.43;42.58;96722.34;4200284;28;5699;-73
2023/06/01 13:26:55;;;;;;;;;;;;;;;25.44;42.85;96713.94;4200466;28;5636;-72
2023/06/01 13:28:58;;;;;;;;;;;;;;;25.46;42.35;96714.44;4200439;28;5774;-73
2023/06/01 13:31:03;;;;;;;;;;;;;;;25.47;42.62;96716.03;4200316;28;5731;-73
2023/06/01 13:33:07;;;;;;;;;;;;;;;25.48;42.65;96714.97;4200532;28;5631;-73
2023/06/01 13:35:11;;;;;;;;;;;;;;;25.48;42.46;96700.63;4200495;28;5710;-74
2023/06/01 13:37:14;;;;;;;;;;;;;;;25.53;42.49;96709.50;4200787;28;5746;-74
2023/06/01 13:39:17;;;;;;;;;;;;;;;25.54;42.43;96697.56;4203039;28;5718;-74
2023/06/01 13:41:21;;;;;;;;;;;;;;;25.58;42.62;96694.25;4203760;28;5857;-74
2023/06/01 13:43:25;;;;;;;;;;;;;;;25.59;42.27;96691.25;4203615;28;5910;-74
2023/06/01 13:45:28;;;;;;;;;;;;;;;25.59;42.44;96696.69;4203719;28;6440;-74
2023/06/01 13:47:32;;;;;;;;;;;;;;;25.61;42.18;96693.72;4203410;28;5691;-74
2023/06/01 13:49:35;;;;;;;;;;;;;;;25.64;42.51;96693.13;4203240;28;5635;-74
2023/06/01 13:51:38;;;;;;;;;;;;;;;25.62;42.21;96685.28;4203456;28;6760;-74
2023/06/01 13:53:41;;;;;;;;;;;;;;;25.61;42.46;96688.28;4203290;28;5671;-74
2023/06/01 13:55:45;;;;;;;;;;;;;;;25.57;42.35;96693.47;4203400;28;5886;-75
2023/06/01 13:57:48;;;;;;;;;;;;;;;25.53;42.54;96693.25;4203467;28;5634;-74
2023/06/01 13:59:51;;;;;;;;;;;;;;;25.51;42.41;96684.63;4203514;28;5700;-73
2023/06/01 14:01:54;;;;;;;;;;;;;;;25.51;42.31;96684.63;4203264;28;5704;-73
2023/06/01 14:03:59;;;;;;;;;;;;;;;25.53;42.67;96682.41;4203366;28;6045;-73
2023/06/01 14:06:02;;;;;;;;;;;;;;;25.54;42.74;96691.34;4203336;28;7712;-73
2023/06/01 14:08:05;;;;;;;;;;;;;;;25.52;42.40;96683.53;4203236;28;5705;-73
2023/06/01 14:10:08;;;;;;;;;;;;;;;25.51;42.21;96673.78;4203357;28;5617;-73
2023/06/01 14:12:12;;;;;;;;;;;;;;;25.53;42.55;96678.91;4203049;28;5683;-74
2023/06/01 14:14:15;;;;;;;;;;;;;;;25.52;42.22;96678.09;4202661;28;5643;-74
2023/06/01 14:16:18;;;;;;;;;;;;;;;25.51;42.43;96678.41;4202865;28;5779;-74
2023/06/01 14:18:21;;;;;;;;;;;;;;;25.54;42.50;96683.22;4203021;28;5787;-76
2023/06/01 14:20:25;;;;;;;;;;;;;;;25.58;42.33;96669.91;4199980;28;5771;-76
2023/06/01 14:22:29;;;;;;;;;;;;;;;25.58;42.38;96667.19;4190434;28;5864;-76
2023/06/01 14:24:31;;;;;;;;;;;;;;;25.57;42.16;96660.97;4194333;28;5709;-73
2023/06/01 14:26:35;;;;;;;;;;;;;;;25.58;42.30;96662.59;4201862;28;7743;-73
2023/06/01 14:28:37;;;;;;;;;;;;;;;25.60;41.84;96654.19;4190373;28;5683;-73
2023/06/01 14:30:40;;;;;;;;;;;;;;;25.60;41.88;96644.19;4201314;28;5811;-73
2023/06/01 14:32:43;;;;;;;;;;;;;;;25.59;42.22;96653.38;4194285;28;5738;-73
2023/06/01 14:34:46;;;;;;;;;;;;;;;25.61;42.08;96640.38;4196733;28;5630;-73
2023/06/01 14:36:51;;;;;;;;;;;;;;;25.66;41.70;96636.78;4195811;28;5627;-73
2023/06/01 14:38:54;;;;;;;;;;;;;;;25.67;41.96;96646.50;4201088;28;6850;-73
2023/06/01 14:40:57;;;;;;;;;;;;;;;25.68;41.56;96640.78;4200119;28;5746;-73
2023/06/01 14:43:00;;;;;;;;;;;;;;;25.71;41.53;96640.25;4192167;28;5837;-73
2023/06/01 14:45:03;;;;;;;;;;;;;;;25.72;41.69;96638.34;4193034;28;5709;-73
2023/06/01 14:47:10;;;;;;;;;;;;;;;25.74;41.30;96646.97;4189908;28;5817;-73
2023/06/01 14:49:13;;;;;;;;;;;;;;;25.78;41.42;96629.84;4194825;28;5725;-74
2023/06/01 14:51:16;;;;;;;;;;;;;;;25.80;41.28;96629.53;4193871;28;5751;-72
2023/06/01 14:53:21;;;;;;;;;;;;;;;25.84;41.23;96638.72;4188866;28;5711;-73
2023/06/01 14:55:24;;;;;;;;;;;;;;;25.87;40.93;96634.59;4191312;28;5632;-72
2023/06/01 14:57:28;;;;;;;;;;;;;;;25.86;41.21;96636.50;4197871;28;5624;-73
2023/06/01 14:59:33;;;;;;;;;;;;;;;25.92;40.93;96629.09;4196008;28;5709;-74
2023/06/01 15:01:36;;;;;;;;;;;;;;;25.95;40.75;96626.63;4188832;28;6724;-73
2023/06/01 15:03:39;;;;;;;;;;;;;;;25.97;40.45;96627.13;4192843;28;5656;-74
2023/06/01 15:05:42;;;;;;;;;;;;;;;26.00;40.06;96621.09;4189722;28;7328;-75
2023/06/01 15:07:45;;;;;;;;;;;;;;;26.08;40.00;96612.31;4189508;28;5655;-75
2023/06/01 15:09:50;;;;;;;;;;;;;;;26.13;39.67;96609.50;4192588;28;5853;-76
2023/06/01 15:11:52;;;;;;;;;;;;;;;26.18;39.89;96613.25;4186900;28;5654;-72
2023/06/01 15:13:56;;;;;;;;;;;;;;;26.17;39.83;96601.59;4195748;28;5853;-72
2023/06/01 15:15:59;;;;;;;;;;;;;;;26.15;40.01;96611.91;4194820;28;5738;-72
2023/06/01 15:18:02;;;;;;;;;;;;;;;26.12;40.08;96601.66;4189102;28;5728;-72
2023/06/01 15:20:06;;;;;;;;;;;;;;;26.09;40.07;96611.19;4189897;28;5862;-73
2023/06/01 15:22:09;;;;;;;;;;;;;;;26.09;39.90;96603.06;4192462;28;5854;-73
2023/06/01 15:24:12;;;;;;;;;;;;;;;26.17;39.62;96603.50;4198788;28;5715;-73
2023/06/01 15:26:17;;;;;;;;;;;;;;;26.20;39.85;96600.19;4198954;28;5793;-73
2023/06/01 15:28:20;;;;;;;;;;;;;;;26.23;39.53;96594.97;4200251;28;5802;-74
2023/06/01 15:30:23;;;;;;;;;;;;;;;26.26;39.50;96597.09;4200408;28;5949;-73
2023/06/01 15:32:26;;;;;;;;;;;;;;;26.32;39.36;96595.91;4200345;28;5912;-73
2023/06/01 15:34:29;;;;;;;;;;;;;;;26.33;39.54;96594.00;4192052;28;5731;-73
2023/06/01 15:36:32;;;;;;;;;;;;;;;26.32;39.48;96592.38;4200284;28;5710;-73
2023/06/01 15:38:36;;;;;;;;;;;;;;;26.33;39.26;96585.88;4192090;28;5770;-72
2023/06/01 15:40:39;;;;;;;;;;;;;;;26.35;39.10;96579.03;4200628;28;5755;-74
2023/06/01 15:42:43;;;;;;;;;;;;;;;26.36;39.38;96580.66;4195842;28;5836;-74
2023/06/01 15:44:46;;;;;;;;;;;;;;;26.38;39.38;96577.66;4197361;28;6762;-73
2023/06/01 15:46:49;;;;;;;;;;;;;;;26.38;39.30;96578.47;4199890;28;5801;-74
2023/06/01 15:48:52;;;;;;;;;;;;;;;26.40;39.31;96586.31;4200350;28;5826;-73
2023/06/01 15:50:55;;;;;;;;;;;;;;;26.38;39.11;96583.06;4199137;28;5649;-72
2023/06/01 15:52:58;;;;;;;;;;;;;;;26.37;39.15;96576.06;4197873;28;5879;-72
2023/06/01 15:55:01;;;;;;;;;;;;;;;26.34;39.19;96579.34;4194766;28;5787;-73
2023/06/01 15:57:05;;;;;;;;;;;;;;;26.36;38.68;96585.25;4193331;28;5724;-73
2023/06/01 15:59:09;;;;;;;;;;;;;;;26.36;39.01;96579.84;4195601;28;5762;-74
2023/06/01 16:01:12;;;;;;;;;;;;;;;26.36;39.06;96579.84;4193022;28;5803;-75
2023/06/01 16:03:20;;;;;;;;;;;;;;;26.37;38.80;96579.56;4190477;28;5771;-75
2023/06/01 16:05:23;;;;;;;;;;;;;;;26.42;38.48;96577.88;4185983;28;5638;-75
2023/06/01 16:07:26;;;;;;;;;;;;;;;26.42;38.63;96578.69;4196883;28;5766;-73
2023/06/01 16:09:30;;;;;;;;;;;;;;;26.43;38.55;96579.50;4199855;28;6267;-73
2023/06/01 16:11:33;;;;;;;;;;;;;;;26.41;38.71;96571.66;4199188;28;5939;-74
2023/06/01 16:13:36;;;;;;;;;;;;;;;26.42;38.41;96561.63;4194374;28;5885;-75
2023/06/01 16:15:40;;;;;;;;;;;;;;;26.43;38.66;96565.94;4196891;28;5823;-74
2023/06/01 16:17:43;;;;;;;;;;;;;;;26.42;38.49;96564.34;4191891;28;5639;-73
2023/06/01 16:19:46;;;;;;;;;;;;;;;26.40;38.54;96559.22;4194851;28;5960;-74
2023/06/01 16:21:49;;;;;;;;;;;;;;;26.35;38.54;96562.78;4193928;28;7720;-74
2023/06/01 16:23:52;;;;;;;;;;;;;;;26.29;38.42;96557.78;4192507;28;5751;-73
2023/06/01 16:25:55;;;;;;;;;;;;;;;26.27;38.54;96555.34;4188267;28;5722;-73